JST295 NZWN-NZQN
Flight info
| Callsign | JST295 |
|---|---|
| Flight time | 1h 6m |
| Altitude | 36000 |
| Route | SABDA Y622 MESIX H159 CH Y266 ELRUV |
| Aircraft | A20N/M-SDE2E3FGHIJ1RWXY/LB1 |
Departure
| Time | 2026-05-06 23:32 |
|---|---|
| Airport | Wellington International Airport (NZWN) |
Arrival
| Time | 2026-05-07 00:38 |
|---|---|
| Airport | Queenstown Airport (NZQN) |
| Time | Latitude | Longitude | Altitude | Speed | Heading |
|---|---|---|---|---|---|
| 2026-05-06 22:42 | -41.33015 | 174.80939 | 31 ft | 0 kts | 118° |
| 2026-05-06 23:10 | -41.33014 | 174.80938 | 26 ft | 2 kts | 118° |
| 2026-05-06 23:10 | -41.33017 | 174.80878 | 26 ft | 3 kts | 25° |
| 2026-05-06 23:10 | -41.33037 | 174.80871 | 31 ft | 1 kts | 3° |
| 2026-05-06 23:19 | -41.33021 | 174.80872 | 30 ft | 2 kts | 3° |
| 2026-05-06 23:19 | -41.32999 | 174.80873 | 51 ft | 4 kts | 2° |
| 2026-05-06 23:19 | -41.32973 | 174.80850 | 22 ft | 5 kts | 301° |
| 2026-05-06 23:20 | -41.32989 | 174.80801 | 26 ft | 7 kts | 208° |
| 2026-05-06 23:20 | -41.33049 | 174.80793 | 29 ft | 10 kts | 182° |
| 2026-05-06 23:20 | -41.33127 | 174.80788 | 30 ft | 12 kts | 182° |
| 2026-05-06 23:20 | -41.33219 | 174.80783 | 29 ft | 15 kts | 182° |
| 2026-05-06 23:21 | -41.33238 | 174.80782 | 31 ft | 3 kts | 182° |
| 2026-05-06 23:21 | -41.33268 | 174.80780 | 31 ft | 6 kts | 183° |
| 2026-05-06 23:21 | -41.33301 | 174.80778 | 30 ft | 8 kts | 182° |
| 2026-05-06 23:21 | -41.33387 | 174.80773 | 30 ft | 10 kts | 182° |
| 2026-05-06 23:22 | -41.33426 | 174.80771 | 31 ft | 7 kts | 182° |
| 2026-05-06 23:22 | -41.33454 | 174.80769 | 26 ft | 0 kts | 182° |
| 2026-05-06 23:27 | -41.33469 | 174.80768 | 28 ft | 5 kts | 182° |
| 2026-05-06 23:27 | -41.33496 | 174.80755 | 30 ft | 0 kts | 227° |
| 2026-05-06 23:28 | -41.33513 | 174.80727 | 30 ft | 7 kts | 234° |
| 2026-05-06 23:28 | -41.33521 | 174.80701 | 27 ft | 6 kts | 251° |
| 2026-05-06 23:29 | -41.33494 | 174.80635 | 28 ft | 8 kts | 342° |
| 2026-05-06 23:29 | -41.33481 | 174.80636 | 30 ft | 0 kts | 3° |
| 2026-05-06 23:31 | -41.33480 | 174.80636 | 30 ft | 1 kts | 3° |
| 2026-05-06 23:31 | -41.33371 | 174.80643 | 28 ft | 48 kts | 2° |
| 2026-05-06 23:31 | -41.32784 | 174.80680 | 27 ft | 114 kts | 2° |
| 2026-05-06 23:31 | -41.31886 | 174.80741 | 527 ft | 127 kts | 3° |
| 2026-05-06 23:32 | -41.31001 | 174.80808 | 1476 ft | 129 kts | 358° |
| 2026-05-06 23:32 | -41.30109 | 174.80882 | 2369 ft | 133 kts | 357° |
| 2026-05-06 23:32 | -41.29136 | 174.80955 | 2927 ft | 148 kts | 356° |
| 2026-05-06 23:32 | -41.28033 | 174.81023 | 3384 ft | 170 kts | 356° |
| 2026-05-06 23:33 | -41.26765 | 174.81091 | 3967 ft | 186 kts | 353° |
| 2026-05-06 23:33 | -41.25499 | 174.80852 | 4982 ft | 184 kts | 340° |
| 2026-05-06 23:33 | -41.24300 | 174.80207 | 5936 ft | 187 kts | 333° |
| 2026-05-06 23:33 | -41.23077 | 174.79538 | 6826 ft | 192 kts | 338° |
| 2026-05-06 23:34 | -41.21780 | 174.78991 | 7697 ft | 197 kts | 342° |
| 2026-05-06 23:34 | -41.20446 | 174.78540 | 8678 ft | 199 kts | 342° |
| 2026-05-06 23:34 | -41.19106 | 174.78090 | 9636 ft | 202 kts | 342° |
| 2026-05-06 23:34 | -41.17727 | 174.77617 | 10521 ft | 206 kts | 342° |
| 2026-05-06 23:35 | -41.16783 | 174.77290 | 11068 ft | 210 kts | 342° |
| 2026-05-06 23:35 | -41.14872 | 174.76626 | 12134 ft | 217 kts | 342° |
| 2026-05-06 23:35 | -41.11848 | 174.75413 | 13807 ft | 224 kts | 329° |
| 2026-05-06 23:36 | -41.10565 | 174.74216 | 14528 ft | 228 kts | 316° |
| 2026-05-06 23:36 | -41.09620 | 174.72532 | 15225 ft | 235 kts | 297° |
| 2026-05-06 23:36 | -41.09201 | 174.70436 | 15920 ft | 244 kts | 277° |
| 2026-05-06 23:36 | -41.09462 | 174.68117 | 16632 ft | 258 kts | 254° |
| 2026-05-06 23:37 | -41.10457 | 174.66070 | 17335 ft | 273 kts | 230° |
| 2026-05-06 23:37 | -41.12097 | 174.64702 | 18032 ft | 289 kts | 203° |
| 2026-05-06 23:37 | -41.14110 | 174.64374 | 18671 ft | 302 kts | 176° |
| 2026-05-06 23:37 | -41.16131 | 174.65212 | 19232 ft | 312 kts | 150° |
| 2026-05-06 23:38 | -41.17793 | 174.67077 | 19795 ft | 317 kts | 131° |
| 2026-05-06 23:38 | -41.19485 | 174.69068 | 19998 ft | 335 kts | 151° |
| 2026-05-06 23:38 | -41.21692 | 174.70175 | 20173 ft | 349 kts | 174° |
| 2026-05-06 23:38 | -41.24173 | 174.70400 | 20359 ft | 365 kts | 183° |
| 2026-05-06 23:39 | -41.26779 | 174.70439 | 20537 ft | 384 kts | 182° |
| 2026-05-06 23:39 | -41.29494 | 174.70606 | 20722 ft | 403 kts | 179° |
| 2026-05-06 23:39 | -41.32339 | 174.70936 | 20940 ft | 420 kts | 176° |
| 2026-05-06 23:39 | -41.35280 | 174.71222 | 21510 ft | 422 kts | 182° |
| 2026-05-06 23:40 | -41.38211 | 174.71016 | 22147 ft | 423 kts | 190° |
| 2026-05-06 23:40 | -41.41121 | 174.70367 | 22747 ft | 425 kts | 193° |
| 2026-05-06 23:40 | -41.44065 | 174.69679 | 23362 ft | 429 kts | 193° |
| 2026-05-06 23:40 | -41.47020 | 174.68968 | 23922 ft | 432 kts | 196° |
| 2026-05-06 23:41 | -41.49907 | 174.67840 | 24429 ft | 431 kts | 204° |
| 2026-05-06 23:41 | -41.52650 | 174.66229 | 24928 ft | 430 kts | 212° |
| 2026-05-06 23:41 | -41.55303 | 174.64360 | 25415 ft | 433 kts | 212° |
| 2026-05-06 23:41 | -41.57965 | 174.62507 | 25892 ft | 436 kts | 212° |
| 2026-05-06 23:42 | -41.60683 | 174.60620 | 26364 ft | 439 kts | 212° |
| 2026-05-06 23:42 | -41.63363 | 174.58758 | 26809 ft | 442 kts | 212° |
| 2026-05-06 23:42 | -41.66120 | 174.56837 | 27271 ft | 445 kts | 212° |
| 2026-05-06 23:42 | -41.68869 | 174.54918 | 27708 ft | 448 kts | 212° |
| 2026-05-06 23:43 | -41.71646 | 174.52976 | 28131 ft | 451 kts | 212° |
| 2026-05-06 23:43 | -41.74435 | 174.51023 | 28533 ft | 454 kts | 213° |
| 2026-05-06 23:43 | -41.77247 | 174.49053 | 28936 ft | 457 kts | 213° |
| 2026-05-06 23:43 | -41.80015 | 174.46974 | 29329 ft | 456 kts | 218° |
| 2026-05-06 23:44 | -41.82646 | 174.44580 | 29700 ft | 457 kts | 220° |
| 2026-05-06 23:44 | -41.85278 | 174.42179 | 30079 ft | 460 kts | 219° |
| 2026-05-06 23:44 | -41.87899 | 174.39798 | 30418 ft | 462 kts | 219° |
| 2026-05-06 23:44 | -41.90597 | 174.37349 | 30811 ft | 463 kts | 219° |
| 2026-05-06 23:45 | -41.93234 | 174.34950 | 31183 ft | 464 kts | 220° |
| 2026-05-06 23:45 | -41.95888 | 174.32532 | 31619 ft | 463 kts | 220° |
| 2026-05-06 23:45 | -41.98546 | 174.30106 | 32121 ft | 461 kts | 220° |
| 2026-05-06 23:45 | -42.01188 | 174.27692 | 32637 ft | 458 kts | 220° |
| 2026-05-06 23:46 | -42.03798 | 174.25304 | 33141 ft | 455 kts | 220° |
| 2026-05-06 23:46 | -42.06442 | 174.22881 | 33628 ft | 452 kts | 220° |
| 2026-05-06 23:46 | -42.09054 | 174.20486 | 34099 ft | 450 kts | 220° |
| 2026-05-06 23:46 | -42.11630 | 174.18120 | 34505 ft | 447 kts | 220° |
| 2026-05-06 23:47 | -42.14174 | 174.15780 | 34885 ft | 445 kts | 220° |
| 2026-05-06 23:47 | -42.16746 | 174.13412 | 35243 ft | 444 kts | 220° |
| 2026-05-06 23:47 | -42.19306 | 174.11054 | 35573 ft | 442 kts | 220° |
| 2026-05-06 23:47 | -42.21835 | 174.08720 | 35894 ft | 441 kts | 220° |
| 2026-05-06 23:48 | -42.24362 | 174.06388 | 36008 ft | 440 kts | 220° |
| 2026-05-06 23:48 | -42.29390 | 174.01739 | 36016 ft | 439 kts | 220° |
| 2026-05-06 23:49 | -42.34434 | 173.97066 | 36010 ft | 440 kts | 220° |
| 2026-05-06 23:49 | -42.39488 | 173.92377 | 36008 ft | 440 kts | 221° |
| 2026-05-06 23:50 | -42.44527 | 173.87693 | 36000 ft | 440 kts | 221° |
| 2026-05-06 23:50 | -42.52059 | 173.80673 | 35997 ft | 440 kts | 221° |
| 2026-05-06 23:51 | -42.57141 | 173.75926 | 35983 ft | 440 kts | 221° |
| 2026-05-06 23:51 | -42.62162 | 173.71225 | 35984 ft | 440 kts | 221° |
| 2026-05-06 23:52 | -42.67199 | 173.66500 | 35979 ft | 440 kts | 221° |
| 2026-05-06 23:52 | -42.72238 | 173.61763 | 35975 ft | 440 kts | 221° |
| 2026-05-06 23:53 | -42.77272 | 173.57021 | 35969 ft | 440 kts | 222° |
| 2026-05-06 23:53 | -42.82274 | 173.52301 | 35971 ft | 440 kts | 222° |
| 2026-05-06 23:54 | -42.87304 | 173.47544 | 35970 ft | 440 kts | 222° |
| 2026-05-06 23:54 | -42.92320 | 173.42791 | 35963 ft | 440 kts | 222° |
| 2026-05-06 23:55 | -42.97365 | 173.38001 | 35962 ft | 440 kts | 222° |
| 2026-05-06 23:55 | -43.02422 | 173.33190 | 35957 ft | 441 kts | 222° |
| 2026-05-06 23:56 | -43.07455 | 173.28350 | 35957 ft | 438 kts | 225° |
| 2026-05-06 23:56 | -43.11870 | 173.22848 | 35942 ft | 428 kts | 235° |
| 2026-05-06 23:57 | -43.15529 | 173.16542 | 35942 ft | 422 kts | 241° |
| 2026-05-06 23:57 | -43.19074 | 173.10019 | 35937 ft | 423 kts | 240° |
| 2026-05-06 23:58 | -43.22570 | 173.03571 | 35933 ft | 423 kts | 241° |
| 2026-05-06 23:58 | -43.25474 | 172.98186 | 35933 ft | 423 kts | 241° |
| 2026-05-06 23:59 | -43.28979 | 172.91666 | 35925 ft | 423 kts | 241° |
| 2026-05-06 23:59 | -43.32473 | 172.85153 | 35917 ft | 424 kts | 241° |
| 2026-05-07 00:00 | -43.35969 | 172.78620 | 35904 ft | 424 kts | 241° |
| 2026-05-07 00:00 | -43.39493 | 172.72020 | 35894 ft | 425 kts | 241° |
| 2026-05-07 00:01 | -43.42976 | 172.65484 | 35879 ft | 425 kts | 241° |
| 2026-05-07 00:01 | -43.46489 | 172.58876 | 35878 ft | 426 kts | 241° |
| 2026-05-07 00:02 | -43.49976 | 172.52275 | 35882 ft | 426 kts | 243° |
| 2026-05-07 00:02 | -43.53014 | 172.45281 | 35885 ft | 425 kts | 247° |
| 2026-05-07 00:03 | -43.55996 | 172.38227 | 35884 ft | 427 kts | 247° |
| 2026-05-07 00:03 | -43.58972 | 172.31172 | 35883 ft | 428 kts | 247° |
| 2026-05-07 00:04 | -43.61962 | 172.24051 | 35878 ft | 429 kts | 246° |
| 2026-05-07 00:04 | -43.64951 | 172.16911 | 35865 ft | 431 kts | 246° |
| 2026-05-07 00:05 | -43.67967 | 172.09690 | 35854 ft | 432 kts | 246° |
| 2026-05-07 00:05 | -43.70951 | 172.02520 | 35849 ft | 433 kts | 246° |
| 2026-05-07 00:06 | -43.73958 | 171.95278 | 35851 ft | 434 kts | 246° |
| 2026-05-07 00:06 | -43.76946 | 171.88068 | 35848 ft | 435 kts | 246° |
| 2026-05-07 00:07 | -43.79965 | 171.80766 | 35841 ft | 436 kts | 246° |
| 2026-05-07 00:07 | -43.82980 | 171.73458 | 35834 ft | 437 kts | 247° |
| 2026-05-07 00:08 | -43.86028 | 171.66191 | 35825 ft | 438 kts | 245° |
| 2026-05-07 00:08 | -43.89180 | 171.58865 | 35816 ft | 439 kts | 246° |
| 2026-05-07 00:09 | -43.92297 | 171.51567 | 35815 ft | 440 kts | 246° |
| 2026-05-07 00:09 | -43.95410 | 171.44239 | 35811 ft | 440 kts | 246° |
| 2026-05-07 00:10 | -43.98518 | 171.36895 | 35811 ft | 440 kts | 246° |
| 2026-05-07 00:10 | -44.01616 | 171.29558 | 35808 ft | 440 kts | 246° |
| 2026-05-07 00:11 | -44.04681 | 171.22280 | 35804 ft | 441 kts | 246° |
| 2026-05-07 00:11 | -44.07780 | 171.14901 | 35803 ft | 441 kts | 246° |
| 2026-05-07 00:12 | -44.10887 | 171.07487 | 35802 ft | 441 kts | 246° |
| 2026-05-07 00:12 | -44.13968 | 171.00113 | 35809 ft | 440 kts | 246° |
| 2026-05-07 00:13 | -44.17047 | 170.92727 | 35809 ft | 440 kts | 246° |
| 2026-05-07 00:13 | -44.20111 | 170.85358 | 35809 ft | 440 kts | 246° |
| 2026-05-07 00:14 | -44.23186 | 170.77945 | 35623 ft | 437 kts | 246° |
| 2026-05-07 00:14 | -44.24689 | 170.74314 | 35059 ft | 438 kts | 246° |
| 2026-05-07 00:14 | -44.26216 | 170.70611 | 34190 ft | 444 kts | 247° |
| 2026-05-07 00:15 | -44.27768 | 170.66838 | 32904 ft | 451 kts | 246° |
| 2026-05-07 00:15 | -44.29323 | 170.63053 | 31630 ft | 456 kts | 246° |
| 2026-05-07 00:15 | -44.30922 | 170.59165 | 30863 ft | 454 kts | 246° |
| 2026-05-07 00:15 | -44.32470 | 170.55427 | 30585 ft | 434 kts | 246° |
| 2026-05-07 00:16 | -44.33932 | 170.51899 | 30397 ft | 414 kts | 247° |
| 2026-05-07 00:16 | -44.35358 | 170.48440 | 30152 ft | 396 kts | 247° |
| 2026-05-07 00:16 | -44.36676 | 170.45227 | 29928 ft | 379 kts | 248° |
| 2026-05-07 00:16 | -44.37988 | 170.42006 | 29371 ft | 377 kts | 248° |
| 2026-05-07 00:17 | -44.39279 | 170.38823 | 28893 ft | 374 kts | 248° |
| 2026-05-07 00:17 | -44.40566 | 170.35653 | 28430 ft | 372 kts | 248° |
| 2026-05-07 00:17 | -44.41838 | 170.32524 | 27961 ft | 369 kts | 248° |
| 2026-05-07 00:17 | -44.43097 | 170.29430 | 27526 ft | 366 kts | 248° |
| 2026-05-07 00:18 | -44.44350 | 170.26345 | 27076 ft | 364 kts | 248° |
| 2026-05-07 00:18 | -44.45601 | 170.23261 | 26646 ft | 361 kts | 248° |
| 2026-05-07 00:18 | -44.46831 | 170.20229 | 26196 ft | 359 kts | 248° |
| 2026-05-07 00:18 | -44.48055 | 170.17209 | 25771 ft | 356 kts | 248° |
| 2026-05-07 00:19 | -44.49292 | 170.14163 | 25341 ft | 352 kts | 248° |
| 2026-05-07 00:19 | -44.50494 | 170.11188 | 24892 ft | 351 kts | 248° |
| 2026-05-07 00:19 | -44.51697 | 170.08205 | 24474 ft | 349 kts | 248° |
| 2026-05-07 00:19 | -44.52891 | 170.05246 | 24088 ft | 346 kts | 248° |
| 2026-05-07 00:20 | -44.54052 | 170.02367 | 23684 ft | 343 kts | 248° |
| 2026-05-07 00:20 | -44.55222 | 169.99460 | 23244 ft | 341 kts | 248° |
| 2026-05-07 00:20 | -44.56391 | 169.96558 | 22838 ft | 337 kts | 248° |
| 2026-05-07 00:20 | -44.57531 | 169.93723 | 22378 ft | 336 kts | 248° |
| 2026-05-07 00:21 | -44.58673 | 169.90878 | 22034 ft | 332 kts | 249° |
| 2026-05-07 00:21 | -44.59794 | 169.88094 | 21888 ft | 321 kts | 249° |
| 2026-05-07 00:21 | -44.60879 | 169.85392 | 21552 ft | 317 kts | 249° |
| 2026-05-07 00:21 | -44.61948 | 169.82718 | 21211 ft | 314 kts | 249° |
| 2026-05-07 00:22 | -44.63011 | 169.80064 | 20817 ft | 313 kts | 249° |
| 2026-05-07 00:22 | -44.64072 | 169.77407 | 20393 ft | 311 kts | 249° |
| 2026-05-07 00:22 | -44.65117 | 169.74789 | 20059 ft | 307 kts | 249° |
| 2026-05-07 00:22 | -44.66163 | 169.72164 | 19698 ft | 306 kts | 250° |
| 2026-05-07 00:23 | -44.67201 | 169.69552 | 19355 ft | 304 kts | 250° |
| 2026-05-07 00:23 | -44.68228 | 169.66969 | 19038 ft | 302 kts | 250° |
| 2026-05-07 00:23 | -44.69246 | 169.64412 | 18705 ft | 299 kts | 250° |
| 2026-05-07 00:23 | -44.70264 | 169.61851 | 18343 ft | 298 kts | 250° |
| 2026-05-07 00:24 | -44.71269 | 169.59313 | 18000 ft | 296 kts | 250° |
| 2026-05-07 00:24 | -44.72254 | 169.56831 | 17864 ft | 286 kts | 250° |
| 2026-05-07 00:24 | -44.73208 | 169.54436 | 17492 ft | 280 kts | 251° |
| 2026-05-07 00:24 | -44.74157 | 169.52040 | 17114 ft | 278 kts | 251° |
| 2026-05-07 00:25 | -44.75097 | 169.49647 | 16599 ft | 280 kts | 251° |
| 2026-05-07 00:25 | -44.76037 | 169.47250 | 15979 ft | 281 kts | 250° |
| 2026-05-07 00:25 | -44.76989 | 169.44835 | 15361 ft | 281 kts | 251° |
| 2026-05-07 00:25 | -44.77940 | 169.42427 | 14761 ft | 282 kts | 251° |
| 2026-05-07 00:26 | -44.78889 | 169.40023 | 14178 ft | 283 kts | 251° |
| 2026-05-07 00:26 | -44.79839 | 169.37604 | 13592 ft | 283 kts | 251° |
| 2026-05-07 00:26 | -44.80798 | 169.35170 | 12942 ft | 284 kts | 251° |
| 2026-05-07 00:26 | -44.81629 | 169.32673 | 12294 ft | 276 kts | 261° |
| 2026-05-07 00:27 | -44.82131 | 169.30103 | 11646 ft | 269 kts | 268° |
| 2026-05-07 00:27 | -44.82536 | 169.27546 | 11139 ft | 266 kts | 267° |
| 2026-05-07 00:27 | -44.82951 | 169.25083 | 10958 ft | 250 kts | 267° |
| 2026-05-07 00:27 | -44.83352 | 169.22728 | 10560 ft | 246 kts | 267° |
| 2026-05-07 00:28 | -44.83739 | 169.20415 | 10286 ft | 237 kts | 267° |
| 2026-05-07 00:28 | -44.84112 | 169.18178 | 9993 ft | 233 kts | 268° |
| 2026-05-07 00:28 | -44.84472 | 169.15965 | 9604 ft | 232 kts | 267° |
| 2026-05-07 00:28 | -44.84923 | 169.13755 | 9165 ft | 238 kts | 257° |
| 2026-05-07 00:29 | -44.85711 | 169.11648 | 8714 ft | 244 kts | 244° |
| 2026-05-07 00:29 | -44.86774 | 169.09886 | 8562 ft | 235 kts | 231° |
| 2026-05-07 00:30 | -44.90780 | 169.06793 | 8456 ft | 208 kts | 200° |
| 2026-05-07 00:30 | -44.92178 | 169.06459 | 8314 ft | 200 kts | 190° |
| 2026-05-07 00:30 | -44.93545 | 169.06433 | 8147 ft | 195 kts | 180° |
| 2026-05-07 00:30 | -44.94880 | 169.06587 | 7942 ft | 191 kts | 179° |
| 2026-05-07 00:31 | -44.96218 | 169.06717 | 7662 ft | 190 kts | 179° |
| 2026-05-07 00:31 | -44.97516 | 169.06833 | 7437 ft | 187 kts | 180° |
| 2026-05-07 00:31 | -44.98809 | 169.06879 | 7119 ft | 185 kts | 189° |
| 2026-05-07 00:31 | -45.00049 | 169.06513 | 6831 ft | 179 kts | 206° |
| 2026-05-07 00:32 | -45.01131 | 169.05776 | 6630 ft | 163 kts | 220° |
| 2026-05-07 00:32 | -45.01964 | 169.04847 | 6454 ft | 147 kts | 232° |
| 2026-05-07 00:32 | -45.02624 | 169.03791 | 6002 ft | 144 kts | 244° |
| 2026-05-07 00:32 | -45.03122 | 169.02562 | 5636 ft | 144 kts | 253° |
| 2026-05-07 00:33 | -45.03441 | 169.01263 | 5331 ft | 137 kts | 262° |
| 2026-05-07 00:33 | -45.03586 | 168.99933 | 5015 ft | 134 kts | 271° |
| 2026-05-07 00:33 | -45.03593 | 168.98613 | 4807 ft | 137 kts | 278° |
| 2026-05-07 00:33 | -45.03467 | 168.97264 | 4561 ft | 137 kts | 287° |
| 2026-05-07 00:34 | -45.03201 | 168.95987 | 4253 ft | 132 kts | 295° |
| 2026-05-07 00:34 | -45.02806 | 168.94810 | 4146 ft | 132 kts | 303° |
| 2026-05-07 00:34 | -45.02299 | 168.93670 | 4186 ft | 140 kts | 305° |
| 2026-05-07 00:34 | -45.01953 | 168.92895 | 4177 ft | 138 kts | 304° |
| 2026-05-07 00:35 | -45.01449 | 168.91755 | 4069 ft | 135 kts | 303° |
| 2026-05-07 00:35 | -45.00961 | 168.90634 | 3891 ft | 136 kts | 304° |
| 2026-05-07 00:35 | -45.00463 | 168.89501 | 3522 ft | 136 kts | 303° |
| 2026-05-07 00:35 | -45.00054 | 168.88323 | 3186 ft | 136 kts | 289° |
| 2026-05-07 00:36 | -44.99861 | 168.87023 | 2886 ft | 135 kts | 275° |
| 2026-05-07 00:36 | -44.99884 | 168.85703 | 2678 ft | 138 kts | 264° |
| 2026-05-07 00:36 | -45.00038 | 168.84395 | 2591 ft | 133 kts | 258° |
| 2026-05-07 00:36 | -45.00258 | 168.83110 | 2562 ft | 136 kts | 255° |
| 2026-05-07 00:37 | -45.00524 | 168.81808 | 2430 ft | 136 kts | 253° |
| 2026-05-07 00:37 | -45.00798 | 168.80542 | 2242 ft | 135 kts | 254° |
| 2026-05-07 00:37 | -45.01046 | 168.79280 | 1952 ft | 133 kts | 255° |
| 2026-05-07 00:37 | -45.01281 | 168.78029 | 1634 ft | 131 kts | 255° |
| 2026-05-07 00:38 | -45.01491 | 168.76787 | 1350 ft | 126 kts | 258° |
| 2026-05-07 00:38 | -45.01669 | 168.75598 | 1183 ft | 125 kts | 258° |
| 2026-05-07 00:38 | -45.01827 | 168.74588 | 1163 ft | 67 kts | 257° |
| 2026-05-07 00:38 | -45.01867 | 168.74341 | 1166 ft | 0 kts | 257° |
| 2026-05-07 00:40 | -45.01890 | 168.74229 | 1168 ft | 17 kts | 253° |
| 2026-05-07 00:40 | -45.01934 | 168.74126 | 1165 ft | 15 kts | 215° |
| 2026-05-07 00:40 | -45.02013 | 168.74077 | 1162 ft | 0 kts | 202° |
| 2026-05-07 00:40 | -45.02032 | 168.74066 | 1162 ft | 6 kts | 202° |
| 2026-05-07 00:41 | -45.02075 | 168.74044 | 1163 ft | 0 kts | 200° |
| 2026-05-07 00:41 | -45.02077 | 168.74043 | 1161 ft | 2 kts | 200° |
| 2026-05-07 00:42 | -45.02099 | 168.74030 | 1164 ft | 5 kts | 205° |
| 2026-05-07 00:42 | -45.02115 | 168.74018 | 1163 ft | 0 kts | 206° |
| 2026-05-07 00:42 | -45.02122 | 168.74014 | 1164 ft | 0 kts | 205° |
| 2026-05-07 00:42 | -45.02127 | 168.74010 | 1164 ft | 0 kts | 206° |